createdAt,value
2018-05-12T00:00:19.603Z,10.57
2018-05-12T00:01:29.347Z,10.71
2018-05-12T00:02:39.090Z,10.68
2018-05-12T00:03:48.829Z,10.69
2018-05-12T00:04:58.580Z,10.75
2018-05-12T00:06:08.597Z,10.72
2018-05-12T00:07:18.346Z,10.79
2018-05-12T00:08:28.358Z,10.82
2018-05-12T00:09:38.373Z,10.71
2018-05-12T00:10:47.861Z,10.72
2018-05-12T00:11:57.620Z,10.67
2018-05-12T00:13:07.359Z,10.59
2018-05-12T00:14:17.374Z,10.61
2018-05-12T00:15:27.386Z,10.57
2018-05-12T00:16:37.136Z,10.58
2018-05-12T00:17:47.147Z,10.61
2018-05-12T00:18:57.173Z,10.49
2018-05-12T00:20:06.919Z,10.57
2018-05-12T00:21:16.664Z,10.49
2018-05-12T00:22:26.673Z,10.49
2018-05-12T00:23:36.154Z,10.53
2018-05-12T00:24:46.181Z,10.55
2018-05-12T00:25:56.190Z,10.46
2018-05-12T00:27:06.202Z,10.51
2018-05-12T00:28:16.220Z,10.41
2018-05-12T00:29:25.433Z,10.41
2018-05-12T00:30:34.908Z,10.43
2018-05-12T00:31:44.391Z,10.45
2018-05-12T00:32:54.410Z,10.45
2018-05-12T00:34:04.421Z,10.43
2018-05-12T00:35:14.164Z,10.45
2018-05-12T00:36:24.174Z,10.48
2018-05-12T00:37:33.922Z,10.43
2018-05-12T00:38:43.755Z,10.39
2018-05-12T00:39:53.760Z,10.41
2018-05-12T00:41:03.771Z,10.45
2018-05-12T00:42:13.515Z,10.48
2018-05-12T00:43:22.452Z,10.45
2018-05-12T00:44:32.223Z,10.45
2018-05-12T00:45:42.230Z,10.46
2018-05-12T00:46:52.241Z,10.49
2018-05-12T00:48:02.250Z,10.55
2018-05-12T00:49:11.727Z,10.46
2018-05-12T00:50:21.744Z,10.46
2018-05-12T00:51:31.750Z,10.42
2018-05-12T00:52:41.494Z,10.53
2018-05-12T00:53:51.525Z,10.46
2018-05-12T00:55:01.614Z,10.57
2018-05-12T00:56:11.085Z,10.42
2018-05-12T00:57:20.830Z,10.42
2018-05-12T00:58:30.846Z,10.46
2018-05-12T00:59:40.593Z,10.43
2018-05-12T01:00:50.066Z,10.49
2018-05-12T01:01:59.805Z,10.42
2018-05-12T01:03:09.821Z,10.45
2018-05-12T01:04:19.571Z,10.51
2018-05-12T01:05:29.604Z,10.48
2018-05-12T01:06:39.351Z,10.48
2018-05-12T01:07:49.179Z,10.45
2018-05-12T01:08:58.925Z,10.49
2018-05-12T01:10:08.936Z,10.43
2018-05-12T01:11:18.943Z,10.49
2018-05-12T01:12:28.972Z,10.42
2018-05-12T01:13:39.099Z,10.46
2018-05-12T01:14:49.251Z,10.53
2018-05-12T01:15:59.311Z,10.49
2018-05-12T01:17:09.058Z,10.53
2018-05-12T01:18:19.069Z,10.45
2018-05-12T01:19:28.548Z,10.46
2018-05-12T01:20:38.292Z,10.49
2018-05-12T01:21:48.302Z,10.46
2018-05-12T01:22:58.313Z,10.46
2018-05-12T01:24:08.339Z,10.42
2018-05-12T01:25:18.363Z,10.38
2018-05-12T01:26:28.106Z,10.51
2018-05-12T01:27:37.682Z,10.42
2018-05-12T01:28:47.427Z,10.36
2018-05-12T01:29:57.435Z,10.42
2018-05-12T01:31:07.181Z,10.49
2018-05-12T01:32:16.928Z,10.34
2018-05-12T01:33:26.938Z,10.36
2018-05-12T01:34:36.688Z,10.34
2018-05-12T01:35:46.708Z,10.38
2018-05-12T01:36:56.794Z,10.33
2018-05-12T01:38:06.338Z,10.34
2018-05-12T01:39:16.351Z,10.41
2018-05-12T01:40:26.364Z,10.34
2018-05-12T01:41:36.378Z,10.36
2018-05-12T01:42:46.397Z,10.34
2018-05-12T01:43:56.137Z,10.38
2018-05-12T01:45:05.884Z,10.38
2018-05-12T01:46:15.898Z,10.34
2018-05-12T01:47:25.918Z,10.34
2018-05-12T01:48:35.664Z,10.33
2018-05-12T01:49:45.675Z,10.27
2018-05-12T01:50:55.685Z,10.28
2018-05-12T01:52:05.428Z,10.3
2018-05-12T01:53:14.907Z,10.28
2018-05-12T01:54:24.925Z,10.28
2018-05-12T01:55:34.933Z,10.23
2018-05-12T01:56:44.952Z,10.25
2018-05-12T01:57:54.967Z,10.21
2018-05-12T01:59:04.714Z,10.27
2018-05-12T02:00:14.457Z,10.28
2018-05-12T02:01:24.198Z,10.21
2018-05-12T02:02:34.095Z,10.23
2018-05-12T02:03:44.100Z,10.3
2018-05-12T02:04:54.115Z,10.18
2018-05-12T02:06:04.126Z,10.31
2018-05-12T02:07:13.867Z,10.18
2018-05-12T02:08:23.606Z,10.15
2018-05-12T02:09:33.637Z,10.2
2018-05-12T02:10:43.374Z,10.23
2018-05-12T02:11:53.382Z,10.23
2018-05-12T02:13:03.392Z,10.17
2018-05-12T02:14:12.865Z,10.27
2018-05-12T02:15:22.885Z,10.27
2018-05-12T02:16:32.631Z,10.25
2018-05-12T02:17:42.109Z,10.21
2018-05-12T02:18:51.852Z,10.27
2018-05-12T02:20:01.865Z,10.27
2018-05-12T02:21:11.680Z,10.27
2018-05-12T02:22:21.424Z,10.3
2018-05-12T02:23:31.437Z,10.23
2018-05-12T02:24:41.181Z,10.33
2018-05-12T02:25:50.928Z,10.34
2018-05-12T02:27:00.938Z,10.24
2018-05-12T02:28:10.685Z,10.24
2018-05-12T02:29:20.166Z,10.27
2018-05-12T02:30:30.423Z,10.27
2018-05-12T02:31:40.550Z,10.21
2018-05-12T02:32:50.563Z,10.27
2018-05-12T02:34:00.316Z,10.27
2018-05-12T02:35:10.440Z,10.39
2018-05-12T02:36:20.184Z,10.36
2018-05-12T02:37:29.996Z,10.36
2018-05-12T02:38:39.741Z,10.33
2018-05-12T02:39:49.481Z,10.39
2018-05-12T02:40:59.236Z,10.34
2018-05-12T02:42:08.715Z,10.41
2018-05-12T02:43:18.468Z,10.36
2018-05-12T02:44:28.214Z,10.43
2018-05-12T02:45:37.425Z,10.43
2018-05-12T02:46:47.187Z,10.51
2018-05-12T02:47:56.936Z,10.42
2018-05-12T02:49:06.684Z,10.39
2018-05-12T02:50:15.897Z,10.31
2018-05-12T02:51:25.378Z,10.27
2018-05-12T02:52:35.402Z,10.31
2018-05-12T02:53:45.417Z,10.24
2018-05-12T02:54:55.161Z,10.23
2018-05-12T02:56:05.184Z,10.31
2018-05-12T02:57:15.197Z,10.28
2018-05-12T02:58:24.955Z,10.24
2018-05-12T02:59:34.961Z,10.24
2018-05-12T03:03:29.595Z,10.2
2018-05-12T03:04:39.622Z,10.13
2018-05-12T03:05:49.374Z,10.13
2018-05-12T03:06:59.197Z,10.2
2018-05-12T03:08:08.943Z,10.24
2018-05-12T03:09:18.797Z,10.13
2018-05-12T03:10:28.555Z,10.15
2018-05-12T03:11:38.571Z,10.13
2018-05-12T03:12:48.048Z,10.1
2018-05-12T03:13:58.071Z,10.17
2018-05-12T03:15:08.091Z,10.23
2018-05-12T03:16:17.837Z,10.13
2018-05-12T03:17:27.854Z,10.12
2018-05-12T03:18:37.592Z,10.18
2018-05-12T03:19:47.328Z,10.17
2018-05-12T03:20:57.370Z,10.24
2018-05-12T03:22:06.846Z,10.27
2018-05-12T03:23:16.586Z,10.2
2018-05-12T03:24:26.596Z,10.2
2018-05-12T03:25:36.689Z,10.21
2018-05-12T03:26:46.426Z,10.25
2018-05-12T03:27:56.451Z,10.33
2018-05-12T03:29:06.212Z,10.38
2018-05-12T03:30:16.227Z,10.38
2018-05-12T03:31:26.247Z,10.31
2018-05-12T03:32:35.998Z,10.28
2018-05-12T03:33:45.744Z,10.33
2018-05-12T03:34:54.965Z,10.36
2018-05-12T03:36:04.451Z,10.34
2018-05-12T03:37:14.199Z,10.34
2018-05-12T03:38:24.310Z,10.42
2018-05-12T03:39:34.324Z,10.34
2018-05-12T03:40:44.067Z,10.27
2018-05-12T03:41:53.807Z,10.24
2018-05-12T03:43:03.548Z,10.28
2018-05-12T03:44:12.754Z,10.15
2018-05-12T03:45:22.771Z,10.21
2018-05-12T03:46:32.794Z,10.12
2018-05-12T03:47:42.532Z,10.07
2018-05-12T03:48:52.540Z,10.05
2018-05-12T03:50:02.550Z,10.07
2018-05-12T03:51:12.026Z,10.07
2018-05-12T03:52:22.041Z,9.94
2018-05-12T03:53:31.795Z,9.91
2018-05-12T03:54:41.546Z,9.97
2018-05-12T03:55:51.288Z,10.03
2018-05-12T03:57:01.031Z,9.94
2018-05-12T03:58:10.769Z,9.92
2018-05-12T03:59:20.245Z,10.05
2018-05-12T04:00:29.990Z,10
2018-05-12T04:01:39.743Z,10
2018-05-12T04:02:49.216Z,10.07
2018-05-12T04:03:59.228Z,10.06
2018-05-12T04:05:08.436Z,10
2018-05-12T04:06:18.461Z,9.99
2018-05-12T04:07:28.479Z,10.09
2018-05-12T04:08:37.839Z,10.13
2018-05-12T04:09:47.634Z,10.1
2018-05-12T04:10:57.374Z,10.13
2018-05-12T04:12:06.853Z,10.23
2018-05-12T04:13:16.969Z,10.15
2018-05-12T04:14:26.714Z,10.2
2018-05-12T04:15:36.458Z,10.21
2018-05-12T04:16:45.939Z,10.28
2018-05-12T04:17:55.692Z,10.21
2018-05-12T04:19:05.700Z,10.25
2018-05-12T04:20:15.718Z,10.27
2018-05-12T04:21:25.455Z,10.38
2018-05-12T04:22:35.194Z,10.38
2018-05-12T04:23:45.209Z,10.39
2018-05-12T04:24:55.229Z,10.38
2018-05-12T04:26:05.238Z,10.46
2018-05-12T04:27:15.268Z,10.48
2018-05-12T04:28:25.281Z,10.51
2018-05-12T04:29:35.290Z,10.46
2018-05-12T04:30:45.301Z,10.57
2018-05-12T04:31:54.772Z,10.59
2018-05-12T04:33:04.783Z,10.51
2018-05-12T04:34:14.789Z,10.64
2018-05-12T04:35:24.544Z,10.55
2018-05-12T04:36:34.557Z,10.55
2018-05-12T04:37:44.564Z,10.61
2018-05-12T04:38:54.574Z,10.59
2018-05-12T04:40:04.059Z,10.64
2018-05-12T04:41:13.530Z,10.61
2018-05-12T04:42:23.276Z,10.67
2018-05-12T04:43:33.292Z,10.68
2018-05-12T04:44:43.304Z,10.69
2018-05-12T04:45:53.313Z,10.69
2018-05-12T04:47:03.051Z,10.76
2018-05-12T04:48:13.083Z,10.79
2018-05-12T04:49:22.826Z,10.8
2018-05-12T04:50:32.566Z,10.76
2018-05-12T04:51:42.045Z,10.75
2018-05-12T04:52:51.256Z,10.69
2018-05-12T04:54:01.273Z,10.72
2018-05-12T04:55:11.382Z,10.71
2018-05-12T04:56:21.140Z,10.69
2018-05-12T04:57:30.624Z,10.67
2018-05-12T04:58:40.644Z,10.71
2018-05-12T04:59:50.663Z,10.8
2018-05-12T05:01:00.406Z,10.67
2018-05-12T05:02:09.884Z,10.83
2018-05-12T05:03:19.635Z,10.83
2018-05-12T05:04:29.381Z,10.87
2018-05-12T05:05:39.391Z,10.87
2018-05-12T05:06:49.137Z,10.9
2018-05-12T05:07:58.611Z,10.94
2018-05-12T05:09:08.352Z,10.98
2018-05-12T05:10:18.362Z,10.95
2018-05-12T05:11:28.376Z,11.01
2018-05-12T05:12:38.390Z,11.08
2018-05-12T05:13:48.409Z,11.07
2018-05-12T05:14:58.416Z,11.12
2018-05-12T05:16:08.162Z,11.08
2018-05-12T05:17:18.178Z,11.02
2018-05-12T05:18:28.187Z,11.13
2018-05-12T05:19:38.192Z,11.05
2018-05-12T05:20:47.669Z,11.08
2018-05-12T05:21:57.695Z,11.07
2018-05-12T05:23:07.714Z,11.12
2018-05-12T05:24:17.192Z,11.19
2018-05-12T05:25:26.665Z,11.2
2018-05-12T05:26:36.683Z,11.2
2018-05-12T05:27:46.427Z,11.2
2018-05-12T05:28:56.171Z,11.1
2018-05-12T05:30:06.190Z,11.05
2018-05-12T05:31:16.206Z,11.05
2018-05-12T05:32:25.944Z,11.07
2018-05-12T05:33:35.691Z,11.1
2018-05-12T05:34:45.449Z,11.01
2018-05-12T05:35:55.477Z,11.04
2018-05-12T05:37:05.215Z,11.02
2018-05-12T05:38:14.967Z,11
2018-05-12T05:39:24.722Z,10.89
2018-05-12T05:40:34.197Z,10.92
2018-05-12T05:41:44.108Z,10.94
2018-05-12T05:42:54.043Z,10.94
2018-05-12T05:44:04.053Z,10.87
2018-05-12T05:45:13.794Z,10.86
2018-05-12T05:46:23.815Z,10.86
2018-05-12T05:47:33.556Z,10.84
2018-05-12T05:48:43.570Z,10.86
2018-05-12T05:49:53.589Z,10.76
2018-05-12T05:51:03.340Z,10.77
2018-05-12T05:52:12.817Z,10.76
2018-05-12T05:53:22.559Z,10.72
2018-05-12T05:54:32.314Z,10.79
2018-05-12T05:55:42.055Z,10.65
2018-05-12T05:56:51.807Z,10.61
2018-05-12T05:58:01.835Z,10.59
2018-05-12T05:59:11.312Z,10.57
2018-05-12T06:00:21.328Z,10.48
2018-05-12T06:01:31.071Z,10.51
2018-05-12T06:02:40.813Z,10.51
2018-05-12T06:03:50.295Z,10.57
2018-05-12T06:05:00.395Z,10.58
2018-05-12T06:06:09.872Z,10.49
2018-05-12T06:07:19.589Z,10.55
2018-05-12T06:08:29.599Z,10.48
2018-05-12T06:09:39.349Z,10.51
2018-05-12T06:10:49.369Z,10.51
2018-05-12T06:11:59.376Z,10.48
2018-05-12T06:13:09.127Z,10.49
2018-05-12T06:14:19.142Z,10.53
2018-05-12T06:15:28.618Z,10.48
2018-05-12T06:16:38.632Z,10.43
2018-05-12T06:17:48.107Z,10.39
2018-05-12T06:18:57.845Z,10.39
2018-05-12T06:20:07.603Z,10.38
2018-05-12T06:21:17.182Z,10.33
2018-05-12T06:22:27.201Z,10.41
2018-05-12T06:23:37.218Z,10.41
2018-05-12T06:24:47.032Z,10.45
2018-05-12T06:25:57.082Z,10.45
2018-05-12T06:27:06.823Z,10.48
2018-05-12T06:28:16.569Z,10.48
2018-05-12T06:29:26.317Z,10.49
2018-05-12T06:30:36.065Z,10.48
2018-05-12T06:31:46.077Z,10.45
2018-05-12T06:32:56.092Z,10.38
2018-05-12T06:34:05.838Z,10.51
2018-05-12T06:35:15.582Z,10.48
2018-05-12T06:36:25.597Z,10.59
2018-05-12T06:37:35.613Z,10.58
2018-05-12T06:38:45.626Z,10.59
2018-05-12T06:39:55.634Z,10.55
2018-05-12T06:41:05.385Z,10.64
2018-05-12T06:42:15.129Z,10.59
2018-05-12T06:43:24.879Z,10.51
2018-05-12T06:44:34.907Z,10.55
2018-05-12T06:45:44.926Z,10.58
2018-05-12T06:46:54.690Z,10.57
2018-05-12T06:48:04.696Z,10.55
2018-05-12T06:49:14.447Z,10.62
2018-05-12T06:50:24.195Z,10.65
2018-05-12T06:51:33.936Z,10.55
2018-05-12T06:52:44.105Z,10.53
2018-05-12T06:53:54.259Z,10.61
2018-05-12T06:55:04.003Z,10.59
2018-05-12T06:56:14.014Z,10.58
2018-05-12T06:57:23.757Z,10.65
2018-05-12T06:58:33.233Z,10.59
2018-05-12T06:59:42.971Z,10.57
2018-05-12T07:00:52.721Z,10.72
2018-05-12T07:02:02.736Z,10.69
2018-05-12T07:03:12.754Z,10.68
2018-05-12T07:04:22.769Z,10.75
2018-05-12T07:05:32.784Z,10.68
2018-05-12T07:06:42.794Z,10.84
2018-05-12T07:07:52.810Z,10.84
2018-05-12T07:09:02.826Z,10.86
2018-05-12T07:10:12.570Z,10.83
2018-05-12T07:11:22.587Z,10.86
2018-05-12T07:12:32.425Z,10.87
2018-05-12T07:13:42.169Z,10.86
2018-05-12T07:14:52.181Z,10.94
2018-05-12T07:16:02.199Z,10.89
2018-05-12T07:17:12.065Z,10.84
2018-05-12T07:18:21.822Z,10.83
2018-05-12T07:19:31.801Z,10.87
2018-05-12T07:20:41.298Z,10.94
2018-05-12T07:21:51.316Z,10.92
2018-05-12T07:23:01.063Z,11.07
2018-05-12T07:24:10.808Z,11.07
2018-05-12T07:25:20.816Z,11.25
2018-05-12T07:26:30.834Z,11.25
2018-05-12T07:27:40.840Z,11.43
2018-05-12T07:28:50.588Z,11.53
2018-05-12T07:30:00.603Z,11.59
2018-05-12T07:31:10.350Z,11.6
2018-05-12T07:32:20.361Z,11.56
2018-05-12T07:33:30.376Z,11.62
2018-05-12T07:34:40.391Z,11.6
2018-05-12T07:35:50.400Z,11.6
2018-05-12T07:37:00.513Z,11.58
2018-05-12T07:38:10.529Z,11.62
2018-05-12T07:39:20.535Z,11.62
2018-05-12T07:40:30.551Z,11.62
2018-05-12T07:41:40.297Z,11.53
2018-05-12T07:42:49.793Z,11.55
2018-05-12T07:43:59.808Z,11.49
2018-05-12T07:45:09.308Z,11.65
2018-05-12T07:46:19.057Z,11.65
2018-05-12T07:47:29.069Z,11.6
2018-05-12T07:48:38.816Z,11.77
2018-05-12T07:49:48.022Z,11.74
2018-05-12T07:50:57.763Z,11.91
2018-05-12T07:52:07.510Z,11.89
2018-05-12T07:53:17.528Z,11.86
2018-05-12T07:54:27.543Z,11.83
2018-05-12T07:55:37.557Z,11.89
2018-05-12T07:56:47.589Z,11.88
2018-05-12T07:57:57.638Z,11.85
2018-05-12T07:59:07.119Z,11.83
2018-05-12T08:00:16.673Z,11.83
2018-05-12T08:01:26.151Z,11.99
2018-05-12T08:02:35.906Z,12.03
2018-05-12T08:03:45.649Z,12.17
2018-05-12T08:04:55.657Z,12.2
2018-05-12T08:06:05.187Z,12.26
2018-05-12T08:07:14.931Z,12.4
2018-05-12T08:08:24.940Z,12.4
2018-05-12T08:09:34.953Z,12.5
2018-05-12T08:10:44.706Z,12.66
2018-05-12T08:11:54.775Z,12.84
2018-05-12T08:13:04.789Z,12.9
2018-05-12T08:14:14.811Z,12.76
2018-05-12T08:15:24.554Z,12.81
2018-05-12T08:16:34.576Z,12.83
2018-05-12T08:17:44.669Z,12.8
2018-05-12T08:18:54.144Z,12.88
2018-05-12T08:20:04.165Z,12.9
2018-05-12T08:21:14.271Z,13.02
2018-05-12T08:22:24.280Z,13.05
2018-05-12T08:23:34.293Z,13.03
2018-05-12T08:24:44.300Z,13.09
2018-05-12T08:25:54.316Z,12.99
2018-05-12T08:27:04.159Z,13.02
2018-05-12T08:28:14.175Z,13.12
2018-05-12T08:29:24.187Z,13.21
2018-05-12T08:30:33.666Z,13.23
2018-05-12T08:31:43.141Z,13.27
2018-05-12T08:32:53.156Z,13.36
2018-05-12T08:34:02.910Z,13.4
2018-05-12T08:35:12.661Z,13.54
2018-05-12T08:36:22.684Z,13.54
2018-05-12T08:37:32.699Z,13.54
2018-05-12T08:38:42.179Z,13.57
2018-05-12T08:39:51.940Z,13.68
2018-05-12T08:41:01.957Z,13.67
2018-05-12T08:42:11.439Z,13.61
2018-05-12T08:43:21.453Z,13.5
2018-05-12T08:44:31.209Z,13.33
2018-05-12T08:45:40.974Z,13.33
2018-05-12T08:46:51.084Z,13.31
2018-05-12T08:48:01.097Z,13.42
2018-05-12T08:49:10.850Z,13.27
2018-05-12T08:50:20.600Z,13.28
2018-05-12T08:51:30.622Z,13.3
2018-05-12T08:52:40.660Z,13.26
2018-05-12T08:53:50.671Z,13.33
2018-05-12T08:55:00.703Z,13.36
2018-05-12T08:56:10.454Z,13.5
2018-05-12T08:57:20.475Z,13.54
2018-05-12T08:58:30.221Z,13.58
2018-05-12T08:59:40.249Z,13.71
2018-05-12T09:00:50.276Z,13.8
2018-05-12T09:02:00.292Z,13.83
2018-05-12T09:03:10.307Z,13.89
2018-05-12T09:04:20.318Z,14.12
2018-05-12T09:05:29.797Z,14.15
2018-05-12T09:06:39.545Z,14.07
2018-05-12T09:07:49.296Z,14.19
2018-05-12T09:08:59.043Z,14.3
2018-05-12T09:10:08.525Z,14.45
2018-05-12T09:11:18.538Z,14.49
2018-05-12T09:12:28.017Z,14.43
2018-05-12T09:13:37.498Z,14.4
2018-05-12T09:14:47.514Z,14.43
2018-05-12T09:15:56.995Z,14.36
2018-05-12T09:17:06.765Z,14.25
2018-05-12T09:18:16.253Z,14.41
2018-05-12T09:19:26.229Z,14.43
2018-05-12T09:20:35.974Z,14.28
2018-05-12T09:21:45.728Z,14.34
2018-05-12T09:22:55.482Z,14.49
2018-05-12T09:24:05.239Z,14.63
2018-05-12T09:25:15.254Z,14.89
2018-05-12T09:26:25.281Z,15.07
2018-05-12T09:27:35.319Z,15.14
2018-05-12T09:28:45.067Z,15.18
2018-05-12T09:29:54.811Z,15.05
2018-05-12T09:31:04.567Z,14.93
2018-05-12T09:32:14.578Z,14.9
2018-05-12T09:33:24.604Z,15.05
2018-05-12T09:34:34.631Z,15.18
2018-05-12T09:35:44.650Z,15.33
2018-05-12T09:36:54.397Z,15.47
2018-05-12T09:38:04.143Z,15.48
2018-05-12T09:39:14.156Z,15.47
2018-05-12T09:40:24.177Z,15.27
2018-05-12T09:41:34.190Z,15.3
2018-05-12T09:42:43.932Z,15.35
2018-05-12T09:43:53.416Z,15.36
2018-05-12T09:45:03.516Z,15.41
2018-05-12T09:46:13.551Z,15.5
2018-05-12T09:47:23.305Z,15.32
2018-05-12T09:48:33.059Z,15.48
2018-05-12T09:49:43.100Z,15.52
2018-05-12T09:50:52.582Z,15.63
2018-05-12T09:52:02.065Z,15.72
2018-05-12T09:53:11.815Z,15.75
2018-05-12T09:54:21.300Z,15.63
2018-05-12T09:55:31.049Z,15.75
2018-05-12T09:56:41.067Z,15.76
2018-05-12T09:57:50.816Z,15.62
2018-05-12T09:59:00.308Z,15.44
2018-05-12T10:00:10.076Z,15.29
2018-05-12T10:01:19.829Z,15.18
2018-05-12T10:02:29.312Z,15.36
2018-05-12T10:03:38.794Z,15.44
2018-05-12T10:04:48.823Z,15.37
2018-05-12T10:05:58.033Z,15.36
2018-05-12T10:07:08.053Z,15.33
2018-05-12T10:08:17.899Z,15.22
2018-05-12T10:09:27.647Z,15.25
2018-05-12T10:10:37.404Z,15.3
2018-05-12T10:11:46.885Z,15.41
2018-05-12T10:12:57.082Z,15.52
2018-05-12T10:14:07.272Z,15.43
2018-05-12T10:15:17.038Z,15.37
2018-05-12T10:16:27.133Z,15.43
2018-05-12T10:17:36.886Z,15.43
2018-05-12T10:18:46.105Z,15.36
2018-05-12T10:19:55.648Z,15.44
2018-05-12T10:21:05.480Z,15.35
2018-05-12T10:22:16.037Z,15.1
2018-05-12T10:23:25.838Z,15
2018-05-12T10:24:35.855Z,15.14
2018-05-12T10:25:45.657Z,15.17
2018-05-12T10:26:55.413Z,15.41
2018-05-12T10:28:05.429Z,15.36
2018-05-12T10:29:15.439Z,15.66
2018-05-12T10:30:25.192Z,15.75
2018-05-12T10:31:35.292Z,15.88
2018-05-12T10:32:45.307Z,15.76
2018-05-12T10:33:54.795Z,15.7
2018-05-12T10:35:04.277Z,15.73
2018-05-12T10:36:14.024Z,15.9
2018-05-12T10:37:23.779Z,15.88
2018-05-12T10:38:33.817Z,15.8
2018-05-12T10:39:43.836Z,15.6
2018-05-12T10:40:53.581Z,15.62
2018-05-12T10:42:03.064Z,15.84
2018-05-12T10:43:12.820Z,15.88
2018-05-12T10:44:22.583Z,15.98
2018-05-12T10:45:32.393Z,16.05
2018-05-12T10:46:42.181Z,16.34
2018-05-12T10:47:52.205Z,16.47
2018-05-12T10:49:01.963Z,16.64
2018-05-12T10:50:11.704Z,16.74
2018-05-12T10:51:21.811Z,16.82
2018-05-12T10:52:31.829Z,16.97
2018-05-12T10:53:41.861Z,17.14
2018-05-12T10:54:51.878Z,17.39
2018-05-12T10:56:01.906Z,17.57
2018-05-12T10:57:11.932Z,17.72
2018-05-12T10:58:21.960Z,17.84
2018-05-12T10:59:31.981Z,18.03
2018-05-12T11:00:41.728Z,18.23
2018-05-12T11:01:51.492Z,18.31
2018-05-12T11:03:01.635Z,18.45
2018-05-12T11:04:10.875Z,18.53
2018-05-12T11:05:20.360Z,18.6
2018-05-12T11:06:30.387Z,18.48
2018-05-12T11:07:40.411Z,18.63
2018-05-12T11:08:50.159Z,18.76
2018-05-12T11:10:00.179Z,18.91
2018-05-12T11:11:09.680Z,19.09
2018-05-12T11:12:19.706Z,19.29
2018-05-12T11:13:29.468Z,19.42
2018-05-12T11:14:39.490Z,19.44
2018-05-12T11:15:49.774Z,19.57
2018-05-12T11:17:00.075Z,19.42
2018-05-12T11:18:10.099Z,19.44
2018-05-12T11:19:20.184Z,19.53
2018-05-12T11:20:30.212Z,19.47
2018-05-12T11:21:40.159Z,19.55
2018-05-12T11:22:50.213Z,19.67
2018-05-12T11:24:00.334Z,19.72
2018-05-12T11:25:10.078Z,19.81
2018-05-12T11:26:19.833Z,19.77
2018-05-12T11:27:29.583Z,19.75
2018-05-12T11:28:39.337Z,19.79
2018-05-12T11:29:48.552Z,19.78
2018-05-12T11:30:58.305Z,19.79
2018-05-12T11:32:07.821Z,19.79
2018-05-12T11:33:17.677Z,19.85
2018-05-12T11:34:27.156Z,19.77
2018-05-12T11:35:37.256Z,19.87
2018-05-12T11:36:47.003Z,19.79
2018-05-12T11:37:56.752Z,19.77
2018-05-12T11:39:06.507Z,19.9
2018-05-12T11:40:16.259Z,20.04
2018-05-12T11:41:26.021Z,20.15
2018-05-12T11:42:36.057Z,20.3
2018-05-12T11:43:46.083Z,20.27
2018-05-12T11:44:55.829Z,20.29
2018-05-12T11:46:05.319Z,20.48
2018-05-12T11:47:15.078Z,20.42
2018-05-12T11:48:24.562Z,20.4
2018-05-12T11:49:34.592Z,20.42
2018-05-12T11:50:44.622Z,20.53
2018-05-12T11:51:54.640Z,20.52
2018-05-12T11:53:04.663Z,20.49
2018-05-12T11:54:14.606Z,20.52
2018-05-12T11:55:24.630Z,20.4
2018-05-12T11:56:34.388Z,20.49
2018-05-12T11:57:44.138Z,20.64
2018-05-12T11:58:53.898Z,20.71
2018-05-12T12:00:03.650Z,20.89
2018-05-12T12:01:13.400Z,20.93
2018-05-12T12:02:23.176Z,21.07
2018-05-12T12:03:33.355Z,21.08
2018-05-12T12:04:43.187Z,21.1
2018-05-12T12:05:52.671Z,21.22
2018-05-12T12:07:02.688Z,21.29
2018-05-12T12:08:12.709Z,21.37
2018-05-12T12:09:22.512Z,21.59
2018-05-12T12:10:32.000Z,21.5
2018-05-12T12:11:41.753Z,21.58
2018-05-12T12:12:51.778Z,21.54
2018-05-12T12:14:01.799Z,21.69
2018-05-12T12:15:10.753Z,21.77
2018-05-12T12:16:20.559Z,21.91
2018-05-12T12:17:30.043Z,22.04
2018-05-12T12:18:40.060Z,22.22
2018-05-12T12:19:50.082Z,22.31
2018-05-12T12:21:00.111Z,22.55
2018-05-12T12:22:09.871Z,22.73
2018-05-12T12:23:19.632Z,22.95
2018-05-12T12:24:28.851Z,23.14
2018-05-12T12:25:38.606Z,23.36
2018-05-12T12:26:48.384Z,23.52
2018-05-12T12:27:57.873Z,24.11
2018-05-12T12:29:07.905Z,24.5
2018-05-12T12:30:17.930Z,24.79
2018-05-12T12:31:27.952Z,24.75
2018-05-12T12:32:37.981Z,24.78
2018-05-12T12:33:46.934Z,24.58
2018-05-12T12:34:56.960Z,24.53
2018-05-12T12:36:06.493Z,24.28
2018-05-12T12:37:16.255Z,24.11
2018-05-12T12:38:25.487Z,24.06
2018-05-12T12:39:35.507Z,24.04
2018-05-12T12:40:45.534Z,23.84
2018-05-12T12:41:55.293Z,23.73
2018-05-12T12:43:05.049Z,23.58
2018-05-12T12:44:14.534Z,23.36
2018-05-12T12:45:24.024Z,23.14
2018-05-12T12:46:34.045Z,22.99
2018-05-12T12:47:44.073Z,22.95
2018-05-12T12:48:54.107Z,22.81
2018-05-12T12:50:03.873Z,22.77
2018-05-12T12:51:13.624Z,22.73
2018-05-12T12:52:23.383Z,22.7
2018-05-12T12:53:33.406Z,22.67
2018-05-12T12:54:42.894Z,22.53
2018-05-12T12:55:52.642Z,22.38
2018-05-12T12:57:02.673Z,22.34
2018-05-12T12:58:12.429Z,22.31
2018-05-12T12:59:22.287Z,22.16
2018-05-12T13:00:32.306Z,22
2018-05-12T13:01:42.329Z,21.92
2018-05-12T13:02:52.134Z,21.88
2018-05-12T13:04:01.576Z,21.78
2018-05-12T13:05:11.066Z,21.83
2018-05-12T13:06:21.091Z,21.69
2018-05-12T13:07:31.117Z,21.4
2018-05-12T13:08:41.142Z,21.5
2018-05-12T13:09:51.168Z,21.35
2018-05-12T13:11:01.191Z,21.29
2018-05-12T13:12:10.951Z,21.11
2018-05-12T13:13:20.431Z,21
2018-05-12T13:14:30.522Z,20.88
2018-05-12T13:15:40.279Z,20.78
2018-05-12T13:16:50.306Z,20.74
2018-05-12T13:18:00.334Z,20.75
2018-05-12T13:19:10.101Z,20.5
2018-05-12T13:20:20.221Z,20.55
2018-05-12T13:21:29.977Z,20.5
2018-05-12T13:22:39.737Z,20.49
2018-05-12T13:23:49.487Z,20.78
2018-05-12T13:24:59.234Z,20.78
2018-05-12T13:26:08.995Z,20.8
2018-05-12T13:27:18.750Z,20.92
2018-05-12T13:28:28.772Z,21.05
2018-05-12T13:29:38.793Z,20.93
2018-05-12T13:30:48.550Z,20.82
2018-05-12T13:31:58.579Z,20.6
2018-05-12T13:33:08.072Z,20.58
2018-05-12T13:34:17.839Z,20.46
2018-05-12T13:35:27.595Z,20.58
2018-05-12T13:36:37.343Z,20.59
2018-05-12T13:37:47.357Z,20.7
2018-05-12T13:38:57.377Z,20.48
2018-05-12T13:40:06.856Z,20.39
2018-05-12T13:41:16.634Z,20.48
2018-05-12T13:42:26.392Z,20.52
2018-05-12T13:43:36.412Z,20.48
2018-05-12T13:44:46.443Z,20.49
2018-05-12T13:45:56.254Z,20.63
2018-05-12T13:47:06.008Z,20.67
2018-05-12T13:48:15.761Z,20.71
2018-05-12T13:49:25.788Z,20.7
2018-05-12T13:50:35.823Z,20.67
2018-05-12T13:51:45.309Z,20.7
2018-05-12T13:52:55.057Z,20.63
2018-05-12T13:54:04.804Z,20.59
2018-05-12T13:55:14.571Z,20.64
2018-05-12T13:56:24.601Z,20.64
2018-05-12T13:57:34.625Z,20.5
2018-05-12T13:58:44.651Z,20.58
2018-05-12T13:59:54.671Z,20.71
2018-05-12T14:01:04.794Z,20.75
2018-05-12T14:02:14.290Z,20.82
2018-05-12T14:03:23.524Z,20.83
2018-05-12T14:04:33.274Z,20.9
2018-05-12T14:05:43.295Z,20.89
2018-05-12T14:06:53.312Z,20.96
2018-05-12T14:08:02.803Z,20.95
2018-05-12T14:09:12.286Z,20.92
2018-05-12T14:10:22.307Z,20.92
2018-05-12T14:11:32.325Z,21.1
2018-05-12T14:12:41.807Z,21.08
2018-05-12T14:13:51.292Z,21.2
2018-05-12T14:15:01.318Z,21.53
2018-05-12T14:16:11.598Z,21.81
2018-05-12T14:17:21.808Z,22.15
2018-05-12T14:18:31.825Z,22.15
2018-05-12T14:19:41.315Z,22.43
2018-05-12T14:20:51.336Z,22.53
2018-05-12T14:22:01.359Z,22.78
2018-05-12T14:23:11.121Z,23.13
2018-05-12T14:24:20.928Z,23.25
2018-05-12T14:25:30.950Z,23.42
2018-05-12T14:26:40.709Z,23.51
2018-05-12T14:27:50.729Z,23.52
2018-05-12T14:29:00.745Z,23.54
2018-05-12T14:30:10.235Z,23.63
2018-05-12T14:31:19.991Z,23.52
2018-05-12T14:32:29.761Z,23.56
2018-05-12T14:33:39.542Z,23.44
2018-05-12T14:34:49.576Z,23.58
2018-05-12T14:35:59.609Z,23.56
2018-05-12T14:37:09.640Z,23.66
2018-05-12T14:38:19.397Z,23.58
2018-05-12T14:39:29.148Z,23.55
2018-05-12T14:40:39.172Z,23.79
2018-05-12T14:41:49.195Z,23.79
2018-05-12T14:42:58.952Z,23.95
2018-05-12T14:44:08.736Z,24.04
2018-05-12T14:45:18.761Z,23.59
2018-05-12T14:46:28.788Z,22.65
2018-05-12T14:47:38.273Z,21.89
2018-05-12T14:48:48.303Z,21.78
2018-05-12T14:49:58.325Z,21.26
2018-05-12T14:51:08.073Z,20.9
2018-05-12T14:52:17.827Z,20.82
2018-05-12T14:53:27.854Z,20.59
2018-05-12T14:54:37.346Z,20.33
2018-05-12T14:55:47.370Z,20.74
2018-05-12T14:56:56.854Z,20.93
2018-05-12T14:58:06.621Z,20.75
2018-05-12T14:59:16.651Z,20.98
2018-05-12T15:00:26.410Z,21.33
2018-05-12T15:01:36.166Z,21.74
2018-05-12T15:02:46.192Z,22
2018-05-12T15:03:55.955Z,22.25
2018-05-12T15:05:05.986Z,22.78